Pagrindinis puslapis
METAR-TAF:

METAR-TAF

Oro uostai :

Cross City, Florida, Jungtinės Amerikos Valstijos

platuma: 29-33-00N, ilguma: 083-06-19W, Aukštis: 12 m

Dabartinis oras

Ataskaita buvo paskelbta 12 minutes, ne 01:15 UTC
Vėjas 3 kt iš Pietų/Pietvakarių
Temperatūra 26°C
Drėgmė 84%
Slėgis 1015 hPa
Matomumas: 16.1 km
Giedras dangus

METAR: KCTY 170115Z AUTO 21003KT 10SM CLR 26/23 A2997 RMK AO2 T02610235

Laikas: 21:27 (01:27 UTC)


TAF: trūkstamas

Orai ataskaitas ir orų prognozės (METAR, TAF).

turimą stotys yra geltonos ir raudonos taškus žemėlapyje.

Perkelti pele per norėdami pamatyti stoties vardą.

Tada spustelėkite, norėdami matyti oro stebėjimo ir prognozės.

Norėdami pakeisti žemėlapį: spustelėkite ant žalios mygtukų su juodo kryžiaus žemyn,; žalią mygtuką su brūkšneliu, jei norite nutolinti; arba žalių rodyklių gretimoms žemėlapius.


METAR-TAF: